Time;durP1;ratioP1;P1;durP2;ratioP2;P2;SDS_P1;SDS_P2;PMS_P1;PMS_P2;Temp;Humidity;BMP_temperature;BMP_pressure;BME280_temperature;BME280_humidity;BME280_pressure;Samples;Min_cycle;Max_cycle;Signal;HPM_P1;HPM_P2
2023/03/03 00:01:47;;;;;;;;;;;;;;;-2.67;64.83;97381.88;108993;1250;101363;-73
2023/03/03 00:04:15;;;;;;;;;;;;;;;-2.69;64.84;97384.45;108995;1251;100162;-73
2023/03/03 00:06:45;;;;;;;;;;;;;;;-2.71;64.77;97383.06;108967;1252;96848;-74
2023/03/03 00:09:13;;;;;;;;;;;;;;;-2.74;65.00;97383.98;109036;1251;97796;-74
2023/03/03 00:11:40;;;;;;;;;;;;;;;-2.77;64.94;97382.52;109062;1251;104246;-76
2023/03/03 00:14:18;;;;;;;;;;;;;;;-2.80;65.04;97386.33;109040;1251;101008;-73
2023/03/03 00:16:48;;;;;;;;;;;;;;;-2.83;65.09;97388.71;108874;1251;99872;-73
2023/03/03 00:19:18;;;;;;;;;;;;;;;-2.88;64.98;97385.25;108971;1253;96936;-73
2023/03/03 00:21:46;;;;;;;;;;;;;;;-2.96;64.93;97383.93;109002;1251;97821;-76
2023/03/03 00:24:14;;;;;;;;;;;;;;;-3.06;64.93;97383.55;109068;1251;105118;-74
2023/03/03 00:26:45;;;;;;;;;;;;;;;-3.12;65.29;97380.20;109045;1251;100996;-75
2023/03/03 00:29:39;;;;;;;;;;;;;;;-3.14;65.42;97379.64;109012;1249;99904;-74
2023/03/03 00:32:22;;;;;;;;;;;;;;;-3.12;65.54;97374.09;109018;1250;97086;-73
2023/03/03 00:34:51;;;;;;;;;;;;;;;-3.12;65.50;97369.84;109081;1251;96971;-74
2023/03/03 00:37:34;;;;;;;;;;;;;;;-3.11;65.73;97369.43;109007;1251;104468;-76
2023/03/03 00:40:25;;;;;;;;;;;;;;;-3.11;65.70;97368.91;109060;1251;101093;-74
2023/03/03 00:42:54;;;;;;;;;;;;;;;-3.12;65.78;97369.84;108714;1250;99230;-74
2023/03/03 00:45:38;;;;;;;;;;;;;;;-3.14;65.83;97373.17;109037;1250;96838;-73
2023/03/03 00:48:32;;;;;;;;;;;;;;;-3.16;65.88;97368.92;109027;1249;96960;-76
2023/03/03 00:51:01;;;;;;;;;;;;;;;-3.16;65.94;97367.94;109054;1251;104989;-78
2023/03/03 00:53:30;;;;;;;;;;;;;;;-3.18;66.01;97367.91;108997;1251;101353;-74
2023/03/03 00:55:58;;;;;;;;;;;;;;;-3.20;66.03;97367.39;108631;1251;99661;-74
2023/03/03 00:58:27;;;;;;;;;;;;;;;-3.24;66.01;97365.38;108783;1251;96942;-74
2023/03/03 01:00:57;;;;;;;;;;;;;;;-3.27;66.12;97361.85;109017;1249;97838;-75
2023/03/03 01:03:26;;;;;;;;;;;;;;;-3.28;66.10;97361.44;108976;1251;104430;-78
2023/03/03 01:05:54;;;;;;;;;;;;;;;-3.29;66.05;97359.92;109011;1251;101655;-73
2023/03/03 01:08:22;;;;;;;;;;;;;;;-3.30;66.09;97357.80;108969;1251;100150;-73
2023/03/03 01:10:57;;;;;;;;;;;;;;;-3.34;66.27;97352.11;108983;1251;96856;-73
2023/03/03 01:13:30;;;;;;;;;;;;;;;-3.40;66.42;97354.71;108900;1249;97032;-73
2023/03/03 01:15:59;;;;;;;;;;;;;;;-3.42;66.47;97353.10;109021;1251;104816;-73
2023/03/03 01:18:27;;;;;;;;;;;;;;;-3.42;66.40;97351.75;108756;1251;101204;-75
2023/03/03 01:20:55;;;;;;;;;;;;;;;-3.44;66.26;97351.04;108910;1251;100112;-75
2023/03/03 01:23:23;;;;;;;;;;;;;;;-3.46;66.38;97349.09;108999;1250;97177;-76
2023/03/03 01:25:51;;;;;;;;;;;;;;;-3.52;66.40;97347.13;109042;1251;97150;-74
2023/03/03 01:28:19;;;;;;;;;;;;;;;-3.60;66.31;97344.42;109064;1250;112512;-73
2023/03/03 01:30:47;;;;;;;;;;;;;;;-3.63;66.52;97340.32;108637;1251;101382;-74
2023/03/03 01:33:15;;;;;;;;;;;;;;;-3.64;66.60;97338.81;108931;1251;99848;-74
2023/03/03 01:35:44;;;;;;;;;;;;;;;-3.65;66.68;97335.72;108941;1251;96855;-73
2023/03/03 01:38:12;;;;;;;;;;;;;;;-3.67;66.60;97333.77;109063;1251;96868;-76
2023/03/03 01:40:40;;;;;;;;;;;;;;;-3.69;66.66;97332.17;109057;1251;104506;-74
2023/03/03 01:43:08;;;;;;;;;;;;;;;-3.72;66.93;97331.81;109007;1251;101303;-73
2023/03/03 01:45:48;;;;;;;;;;;;;;;-3.75;67.00;97326.15;108633;1251;99842;-74
2023/03/03 01:48:16;;;;;;;;;;;;;;;-3.76;67.15;97328.68;108914;1251;96922;-74
2023/03/03 01:50:47;;;;;;;;;;;;;;;-3.74;67.24;97331.68;109009;1251;96965;-75
2023/03/03 01:53:19;;;;;;;;;;;;;;;-3.74;67.12;97327.95;109055;1251;105122;-76
2023/03/03 01:55:49;;;;;;;;;;;;;;;-3.75;67.23;97329.34;109005;1251;110071;-76
2023/03/03 01:58:23;;;;;;;;;;;;;;;-3.77;67.17;97325.62;108976;1251;99827;-73
2023/03/03 02:00:53;;;;;;;;;;;;;;;-3.75;67.19;97327.56;109000;1251;96851;-75
2023/03/03 02:03:23;;;;;;;;;;;;;;;-3.75;67.01;97330.67;108861;1251;97020;-78
2023/03/03 02:05:54;;;;;;;;;;;;;;;-3.75;67.10;97329.98;109042;1250;105097;-73
2023/03/03 02:08:26;;;;;;;;;;;;;;;-3.75;67.17;97330.94;109048;1250;101478;-74
2023/03/03 02:10:55;;;;;;;;;;;;;;;-3.74;66.94;97328.66;108969;1250;98869;-77
2023/03/03 02:13:22;;;;;;;;;;;;;;;-3.73;67.00;97329.66;109004;1250;97258;-73
2023/03/03 02:15:50;;;;;;;;;;;;;;;-3.74;67.04;97332.71;109050;1250;97020;-74
2023/03/03 02:18:20;;;;;;;;;;;;;;;-3.76;66.99;97334.15;109055;1251;105122;-73
2023/03/03 02:20:51;;;;;;;;;;;;;;;-3.80;66.99;97336.23;109019;1250;101735;-73
2023/03/03 02:23:27;;;;;;;;;;;;;;;-3.83;67.15;97339.61;109032;1251;100205;-73
2023/03/03 02:25:59;;;;;;;;;;;;;;;-3.83;67.16;97334.37;108692;1250;96958;-73
2023/03/03 02:28:28;;;;;;;;;;;;;;;-3.86;67.15;97334.09;109009;1251;97011;-76
2023/03/03 02:30:56;;;;;;;;;;;;;;;-3.88;67.32;97335.00;109061;1251;105657;-76
2023/03/03 02:33:25;;;;;;;;;;;;;;;-3.89;67.19;97337.48;109101;1250;102424;-73
2023/03/03 02:35:53;;;;;;;;;;;;;;;-3.89;67.12;97331.69;108998;1251;99987;-73
2023/03/03 02:38:24;;;;;;;;;;;;;;;-3.89;67.12;97330.16;108906;1251;96904;-77
2023/03/03 02:40:58;;;;;;;;;;;;;;;-3.93;67.01;97324.14;109044;1251;96926;-73
2023/03/03 02:43:30;;;;;;;;;;;;;;;-3.97;66.91;97324.11;108989;1250;103920;-74
2023/03/03 02:45:58;;;;;;;;;;;;;;;-4.05;66.84;97323.80;109046;1250;101266;-73
2023/03/03 02:48:26;;;;;;;;;;;;;;;-4.14;67.08;97325.24;108991;1251;100214;-75
2023/03/03 02:50:53;;;;;;;;;;;;;;;-4.19;67.21;97326.15;109032;1251;96917;-77
2023/03/03 02:53:21;;;;;;;;;;;;;;;-4.22;67.33;97326.81;109019;1250;96922;-73
2023/03/03 02:55:49;;;;;;;;;;;;;;;-4.23;67.48;97326.88;109013;1250;104944;-74
2023/03/03 02:58:17;;;;;;;;;;;;;;;-4.22;67.47;97322.92;109028;1251;101360;-74
2023/03/03 03:00:46;;;;;;;;;;;;;;;-4.22;67.59;97324.28;108978;1250;100119;-73
2023/03/03 03:03:14;;;;;;;;;;;;;;;-4.22;67.51;97323.23;109010;1249;96844;-73
2023/03/03 03:05:42;;;;;;;;;;;;;;;-4.24;67.47;97323.27;109003;1251;96990;-73
2023/03/03 03:08:10;;;;;;;;;;;;;;;-4.24;67.62;97323.64;108992;1251;113529;-74
2023/03/03 03:10:38;;;;;;;;;;;;;;;-4.24;67.71;97318.67;109023;1250;101538;-73
2023/03/03 03:13:06;;;;;;;;;;;;;;;-4.21;67.70;97320.92;108976;1249;108502;-77
2023/03/03 03:15:35;;;;;;;;;;;;;;;-4.22;67.68;97316.56;108970;1250;96888;-78
2023/03/03 03:18:03;;;;;;;;;;;;;;;-4.22;67.73;97316.41;109033;1249;96933;-76
2023/03/03 03:20:31;;;;;;;;;;;;;;;-4.23;67.86;97310.66;109014;1250;104933;-73
2023/03/03 03:22:59;;;;;;;;;;;;;;;-4.25;67.80;97312.23;109062;1250;101632;-74
2023/03/03 03:25:27;;;;;;;;;;;;;;;-4.25;67.71;97314.41;108701;1250;99728;-74
2023/03/03 03:27:55;;;;;;;;;;;;;;;-4.27;67.66;97314.70;109027;1250;96870;-73
2023/03/03 03:30:23;;;;;;;;;;;;;;;-4.28;67.77;97312.66;109009;1250;97864;-74
2023/03/03 03:32:51;;;;;;;;;;;;;;;-4.28;67.73;97312.32;108687;1250;104926;-77
2023/03/03 03:35:19;;;;;;;;;;;;;;;-4.28;67.71;97310.23;108672;1250;101446;-75
2023/03/03 03:37:47;;;;;;;;;;;;;;;-4.29;67.83;97313.09;108948;1250;99939;-75
2023/03/03 03:40:15;;;;;;;;;;;;;;;-4.30;67.74;97310.02;109019;1251;97215;-76
2023/03/03 03:42:43;;;;;;;;;;;;;;;-4.33;67.81;97306.95;108997;1250;96932;-76
2023/03/03 03:45:14;;;;;;;;;;;;;;;-4.37;67.83;97309.52;109004;1250;113660;-74
2023/03/03 03:47:42;;;;;;;;;;;;;;;-4.37;67.88;97310.80;109009;1249;101387;-77
2023/03/03 03:50:10;;;;;;;;;;;;;;;-4.37;67.85;97308.34;109000;1249;99816;-78
2023/03/03 03:52:38;;;;;;;;;;;;;;;-4.37;67.75;97304.98;108703;1249;97181;-74
2023/03/03 03:55:06;;;;;;;;;;;;;;;-4.37;67.69;97303.05;109004;1249;97261;-74
2023/03/03 03:57:34;;;;;;;;;;;;;;;-4.37;67.68;97303.91;109010;1250;104840;-74
2023/03/03 04:00:02;;;;;;;;;;;;;;;-4.40;67.51;97298.88;109048;1250;101446;-77
2023/03/03 04:02:30;;;;;;;;;;;;;;;-4.43;67.60;97298.44;109051;1250;99898;-73
2023/03/03 04:04:58;;;;;;;;;;;;;;;-4.46;67.65;97298.27;108958;1250;98427;-74
2023/03/03 04:07:26;;;;;;;;;;;;;;;-4.46;67.64;97300.79;108963;1249;97066;-74
2023/03/03 04:09:54;;;;;;;;;;;;;;;-4.50;67.66;97297.21;109048;1250;105137;-75
2023/03/03 04:12:22;;;;;;;;;;;;;;;-4.54;67.64;97295.77;109001;1251;110400;-74
2023/03/03 04:14:50;;;;;;;;;;;;;;;-4.55;67.85;97295.17;108983;1249;99967;-74
2023/03/03 04:17:23;;;;;;;;;;;;;;;-4.55;67.90;97295.15;108976;1249;97214;-73
2023/03/03 04:19:54;;;;;;;;;;;;;;;-4.53;67.83;97292.20;109004;1249;96972;-75
2023/03/03 04:22:22;;;;;;;;;;;;;;;-4.53;67.72;97293.11;108933;1251;105518;-78
2023/03/03 04:24:50;;;;;;;;;;;;;;;-4.56;67.76;97295.58;109028;1250;101308;-74
2023/03/03 04:27:18;;;;;;;;;;;;;;;-4.59;67.74;97298.30;108964;1249;100023;-73
2023/03/03 04:29:46;;;;;;;;;;;;;;;-4.60;67.80;97301.01;109002;1249;96880;-78
2023/03/03 04:32:15;;;;;;;;;;;;;;;-4.61;67.88;97296.52;108991;1250;96888;-74
2023/03/03 04:34:43;;;;;;;;;;;;;;;-4.64;67.91;97300.45;109018;1250;105147;-74
2023/03/03 04:37:11;;;;;;;;;;;;;;;-4.66;67.99;97296.23;109038;1250;101851;-74
2023/03/03 04:39:39;;;;;;;;;;;;;;;-4.66;68.14;97297.11;109022;1250;108745;-75
2023/03/03 04:42:07;;;;;;;;;;;;;;;-4.65;67.99;97299.15;108996;1250;96903;-74
2023/03/03 04:44:35;;;;;;;;;;;;;;;-4.66;68.15;97297.83;109038;1250;96908;-74
2023/03/03 04:47:03;;;;;;;;;;;;;;;-4.68;68.19;97296.17;109006;1249;104992;-74
2023/03/03 04:49:31;;;;;;;;;;;;;;;-4.68;68.22;97290.76;109019;1250;110279;-74
2023/03/03 04:51:59;;;;;;;;;;;;;;;-4.68;68.12;97294.95;109055;1250;100078;-77
2023/03/03 04:54:26;;;;;;;;;;;;;;;-4.67;68.17;97289.64;108987;1249;97238;-74
2023/03/03 04:56:54;;;;;;;;;;;;;;;-4.68;68.11;97290.91;109047;1249;96894;-73
2023/03/03 04:59:22;;;;;;;;;;;;;;;-4.68;68.08;97295.51;108695;1250;105061;-74
2023/03/03 05:01:51;;;;;;;;;;;;;;;-4.71;68.01;97297.51;108981;1250;110183;-74
2023/03/03 05:04:19;;;;;;;;;;;;;;;-4.75;67.95;97298.99;108992;1250;108456;-75
2023/03/03 05:06:47;;;;;;;;;;;;;;;-4.76;68.06;97296.45;109010;1250;96835;-77
2023/03/03 05:09:15;;;;;;;;;;;;;;;-4.78;67.94;97298.50;109023;1250;96944;-73
2023/03/03 05:11:43;;;;;;;;;;;;;;;-4.80;67.98;97303.95;109044;1250;105008;-75
2023/03/03 05:14:11;;;;;;;;;;;;;;;-4.82;67.98;97303.40;109015;1250;111466;-75
2023/03/03 05:16:39;;;;;;;;;;;;;;;-4.84;67.94;97303.03;108995;1250;108767;-76
2023/03/03 05:19:07;;;;;;;;;;;;;;;-4.87;67.98;97306.08;108990;1250;96904;-75
2023/03/03 05:21:35;;;;;;;;;;;;;;;-4.88;67.96;97308.23;108912;1249;97212;-74
2023/03/03 05:24:03;;;;;;;;;;;;;;;-4.87;67.88;97309.40;109022;1250;105382;-74
2023/03/03 05:26:32;;;;;;;;;;;;;;;-4.87;68.06;97310.12;109028;1249;100383;-75
2023/03/03 05:29:00;;;;;;;;;;;;;;;-4.90;68.14;97317.89;109015;1250;100038;-78
2023/03/03 05:31:28;;;;;;;;;;;;;;;-4.89;68.15;97316.48;108651;1251;97044;-75
2023/03/03 05:33:56;;;;;;;;;;;;;;;-4.89;68.15;97317.33;108975;1250;96984;-74
2023/03/03 05:36:24;;;;;;;;;;;;;;;-4.90;68.09;97317.59;109023;1250;104056;-75
2023/03/03 05:38:52;;;;;;;;;;;;;;;-4.89;68.18;97322.60;108949;1250;101483;-74
2023/03/03 05:41:20;;;;;;;;;;;;;;;-4.90;68.26;97320.16;108922;1250;99843;-77
2023/03/03 05:43:48;;;;;;;;;;;;;;;-4.93;68.22;97326.03;108960;1249;96885;-74
2023/03/03 05:46:16;;;;;;;;;;;;;;;-4.93;68.41;97327.27;109030;1249;96967;-74
2023/03/03 05:48:45;;;;;;;;;;;;;;;-4.90;68.48;97327.24;109010;1250;104918;-77
2023/03/03 05:51:13;;;;;;;;;;;;;;;-4.88;68.53;97333.57;109019;1250;101097;-74
2023/03/03 05:53:41;;;;;;;;;;;;;;;-4.87;68.41;97331.38;108949;1250;100019;-73
2023/03/03 05:56:09;;;;;;;;;;;;;;;-4.86;68.58;97339.52;108993;1249;96943;-74
2023/03/03 05:58:37;;;;;;;;;;;;;;;-4.84;68.57;97339.23;109043;1249;96938;-76
2023/03/03 06:01:05;;;;;;;;;;;;;;;-4.83;68.67;97336.83;109047;1250;105025;-74
2023/03/03 06:03:33;;;;;;;;;;;;;;;-4.82;68.66;97334.14;108994;1250;101145;-78
2023/03/03 06:06:01;;;;;;;;;;;;;;;-4.81;68.71;97329.52;108980;1250;99863;-74
2023/03/03 06:08:31;;;;;;;;;;;;;;;-4.79;68.70;97329.81;108968;1250;96918;-76
2023/03/03 06:10:59;;;;;;;;;;;;;;;-4.75;68.83;97336.58;109023;1250;97139;-74
2023/03/03 06:13:27;;;;;;;;;;;;;;;-4.71;68.88;97338.39;108999;1250;105274;-75
2023/03/03 06:15:55;;;;;;;;;;;;;;;-4.71;68.85;97335.34;109066;1250;101518;-76
2023/03/03 06:18:23;;;;;;;;;;;;;;;-4.68;68.84;97340.95;108864;1251;100125;-74
2023/03/03 06:20:51;;;;;;;;;;;;;;;-4.64;68.86;97342.79;108824;1251;96842;-75
2023/03/03 06:23:19;;;;;;;;;;;;;;;-4.61;68.91;97347.32;108915;1251;96920;-77
2023/03/03 06:25:47;;;;;;;;;;;;;;;-4.57;69.05;97350.65;108929;1251;113406;-74
2023/03/03 06:28:15;;;;;;;;;;;;;;;-4.53;69.04;97352.45;108878;1250;101094;-80
2023/03/03 06:30:43;;;;;;;;;;;;;;;-4.49;69.13;97352.66;108875;1251;99574;-71
2023/03/03 06:33:11;;;;;;;;;;;;;;;-4.45;69.12;97361.80;108896;1251;96890;-74
2023/03/03 06:35:39;;;;;;;;;;;;;;;-4.39;69.05;97364.48;108929;1251;96981;-73
2023/03/03 06:38:07;;;;;;;;;;;;;;;-4.32;69.00;97367.83;108897;1251;113414;-73
2023/03/03 06:40:35;;;;;;;;;;;;;;;-4.27;69.03;97362.90;108928;1251;100294;-75
2023/03/03 06:43:03;;;;;;;;;;;;;;;-4.22;69.07;97362.58;108890;1251;99786;-72
2023/03/03 06:45:31;;;;;;;;;;;;;;;-4.13;69.23;97363.85;108849;1251;96915;-73
2023/03/03 06:48:00;;;;;;;;;;;;;;;-4.07;69.32;97367.39;108900;1251;97024;-73
2023/03/03 06:50:28;;;;;;;;;;;;;;;-4.01;69.28;97369.34;108904;1250;104549;-73
2023/03/03 06:53:07;;;;;;;;;;;;;;;-3.95;69.32;97374.75;108914;1250;101635;-76
2023/03/03 06:55:35;;;;;;;;;;;;;;;-3.91;69.46;97381.94;108612;1251;100008;-72
2023/03/03 06:58:08;;;;;;;;;;;;;;;-3.84;69.51;97383.45;108843;1251;97204;-73
2023/03/03 07:00:36;;;;;;;;;;;;;;;-3.74;69.61;97383.59;108724;1251;97188;-77
2023/03/03 07:03:18;;;;;;;;;;;;;;;-3.64;69.79;97380.84;108934;1251;104502;-77
2023/03/03 07:05:46;;;;;;;;;;;;;;;-3.53;69.86;97384.09;108737;1250;100521;-73
2023/03/03 07:08:19;;;;;;;;;;;;;;;-3.41;69.86;97384.75;108937;1251;99029;-75
2023/03/03 07:10:47;;;;;;;;;;;;;;;-3.30;69.74;97390.86;108854;1251;96921;-76
2023/03/03 07:13:20;;;;;;;;;;;;;;;-3.18;69.83;97390.26;108886;1251;97309;-77
2023/03/03 07:15:49;;;;;;;;;;;;;;;-3.06;69.90;97391.71;108685;1251;104336;-77
2023/03/03 07:18:39;;;;;;;;;;;;;;;-2.96;69.84;97402.45;109040;1249;101211;-73
2023/03/03 07:21:14;;;;;;;;;;;;;;;-2.87;69.98;97400.33;108937;1249;108575;-72
2023/03/03 07:23:44;;;;;;;;;;;;;;;-2.84;70.05;97397.91;108984;1249;97052;-73
2023/03/03 07:26:14;;;;;;;;;;;;;;;-2.79;70.01;97400.65;108436;1251;97173;-73
2023/03/03 07:28:43;;;;;;;;;;;;;;;-2.70;70.18;97392.52;109012;1249;105325;-73
2023/03/03 07:31:26;;;;;;;;;;;;;;;-2.61;69.95;97392.41;109060;1250;101296;-73
2023/03/03 07:33:55;;;;;;;;;;;;;;;-2.47;70.13;97392.70;108970;1250;99861;-73
2023/03/03 07:36:31;;;;;;;;;;;;;;;-2.35;70.24;97393.25;109003;1249;96916;-73
2023/03/03 07:39:00;;;;;;;;;;;;;;;-2.27;70.03;97392.65;109041;1249;97014;-73
2023/03/03 07:41:31;;;;;;;;;;;;;;;-2.19;70.06;97387.98;109025;1249;104917;-76
2023/03/03 07:44:04;;;;;;;;;;;;;;;-2.12;70.05;97390.36;109016;1250;102133;-73
2023/03/03 07:46:41;;;;;;;;;;;;;;;-2.06;69.74;97388.27;108674;1250;98515;-73
2023/03/03 07:49:34;;;;;;;;;;;;;;;-2.00;69.68;97381.13;108993;1250;97010;-73
2023/03/03 07:52:02;;;;;;;;;;;;;;;-1.89;69.69;97378.96;108663;1251;97051;-72
2023/03/03 07:54:34;;;;;;;;;;;;;;;-1.80;69.80;97369.33;108668;1251;104439;-73
2023/03/03 07:57:12;;;;;;;;;;;;;;;-1.68;69.84;97373.08;104966;1250;5162053;-71
2023/03/03 07:59:50;;;;;;;;;;;;;;;-1.59;69.71;97369.81;109031;1249;100378;-72
2023/03/03 08:02:18;;;;;;;;;;;;;;;-1.53;69.64;97364.80;109018;1250;96865;-73
2023/03/03 08:04:51;;;;;;;;;;;;;;;-1.49;69.66;97362.48;109045;1250;97907;-74
2023/03/03 08:07:20;;;;;;;;;;;;;;;-1.43;69.74;97363.17;108969;1250;104890;-73
2023/03/03 08:09:48;;;;;;;;;;;;;;;-1.33;69.58;97366.69;109011;1250;101306;-72
2023/03/03 08:12:28;;;;;;;;;;;;;;;-1.20;69.53;97364.27;109022;1250;98422;-77
2023/03/03 08:14:58;;;;;;;;;;;;;;;-1.09;69.41;97355.86;108981;1250;96857;-77
2023/03/03 08:17:31;;;;;;;;;;;;;;;-0.96;69.39;97342.29;109018;1250;97287;-73
2023/03/03 08:19:59;;;;;;;;;;;;;;;-0.80;69.33;97331.41;109058;1249;104880;-72
2023/03/03 08:22:35;;;;;;;;;;;;;;;-0.61;69.14;97312.12;109014;1249;101742;-73
2023/03/03 08:25:03;;;;;;;;;;;;;;;-0.33;68.99;97314.61;108963;1250;99585;-72
2023/03/03 08:27:31;;;;;;;;;;;;;;;-0.06;68.98;97316.10;109005;1249;96898;-75
2023/03/03 08:29:59;;;;;;;;;;;;;;;0.20;68.85;97309.61;109004;1249;96994;-73
2023/03/03 08:32:27;;;;;;;;;;;;;;;0.50;68.52;97293.29;108999;1250;113235;-73
2023/03/03 08:34:55;;;;;;;;;;;;;;;0.71;68.24;97295.73;109030;1249;101586;-73
2023/03/03 08:37:23;;;;;;;;;;;;;;;0.97;68.12;97294.14;108963;1249;98682;-73
2023/03/03 08:39:51;;;;;;;;;;;;;;;1.26;68.00;97296.40;108966;1250;96835;-74
2023/03/03 08:42:19;;;;;;;;;;;;;;;1.55;67.94;97294.60;109045;1250;97178;-76
2023/03/03 08:44:47;;;;;;;;;;;;;;;1.85;67.67;97292.71;109030;1250;104829;-72
2023/03/03 08:47:15;;;;;;;;;;;;;;;2.11;67.18;97294.02;109050;1250;101138;-73
2023/03/03 08:49:43;;;;;;;;;;;;;;;2.40;67.16;97301.58;108638;1250;98956;-72
2023/03/03 08:52:11;;;;;;;;;;;;;;;2.72;66.91;97302.41;108718;1251;96940;-72
2023/03/03 08:54:39;;;;;;;;;;;;;;;3.07;66.28;97304.33;109000;1250;97844;-74
2023/03/03 08:57:07;;;;;;;;;;;;;;;3.37;65.72;97300.08;108685;1251;104473;-74
2023/03/03 08:59:37;;;;;;;;;;;;;;;3.59;64.70;97294.30;109017;1250;101281;-72
2023/03/03 09:02:06;;;;;;;;;;;;;;;3.72;64.23;97283.68;109013;1250;99977;-73
2023/03/03 09:04:34;;;;;;;;;;;;;;;3.91;64.11;97282.98;108950;1250;96901;-73
2023/03/03 09:07:02;;;;;;;;;;;;;;;4.18;63.92;97291.39;108995;1250;97954;-74
2023/03/03 09:09:30;;;;;;;;;;;;;;;4.45;63.73;97306.18;108949;1250;113370;-72
2023/03/03 09:11:59;;;;;;;;;;;;;;;4.62;63.34;97313.30;108733;1250;101389;-73
2023/03/03 09:14:28;;;;;;;;;;;;;;;4.70;62.64;97309.52;108961;1250;100069;-73
2023/03/03 09:16:56;;;;;;;;;;;;;;;4.86;62.37;97306.88;108933;1250;96950;-72
2023/03/03 09:19:32;;;;;;;;;;;;;;;5.06;62.13;97302.88;109003;1250;97180;-75
2023/03/03 09:22:04;;;;;;;;;;;;;;;5.39;61.99;97294.13;108994;1250;104934;-74
2023/03/03 09:24:36;;;;;;;;;;;;;;;5.80;61.74;97304.87;108722;1250;101781;-73
2023/03/03 09:27:12;;;;;;;;;;;;;;;6.19;61.35;97302.21;108834;1249;100161;-73
2023/03/03 09:29:41;;;;;;;;;;;;;;;6.40;60.77;97291.70;108745;1254;97148;-72
2023/03/03 09:32:20;;;;;;;;;;;;;;;6.40;60.19;97285.23;108916;1251;96967;-73
2023/03/03 09:34:48;;;;;;;;;;;;;;;6.37;59.64;97280.84;108872;1250;104621;-75
2023/03/03 09:37:20;;;;;;;;;;;;;;;6.26;59.48;97289.39;108980;1250;101166;-73
2023/03/03 09:39:49;;;;;;;;;;;;;;;6.19;59.35;97296.14;108952;1250;99881;-72
2023/03/03 09:42:20;;;;;;;;;;;;;;;6.13;59.28;97303.99;108884;1250;96963;-72
2023/03/03 09:44:52;;;;;;;;;;;;;;;6.17;59.31;97304.81;108949;1251;97016;-72
2023/03/03 09:47:29;;;;;;;;;;;;;;;6.17;59.13;97297.63;108909;1250;104831;-73
2023/03/03 09:50:17;;;;;;;;;;;;;;;6.16;59.06;97292.52;108983;1251;101329;-74
2023/03/03 09:52:52;;;;;;;;;;;;;;;6.21;58.83;97293.16;108870;1250;99825;-75
2023/03/03 09:55:29;;;;;;;;;;;;;;;6.34;58.93;97296.26;108907;1250;96922;-75
2023/03/03 09:58:10;;;;;;;;;;;;;;;6.53;58.84;97293.89;108800;1255;97391;-73
2023/03/03 10:00:41;;;;;;;;;;;;;;;6.67;58.43;97291.48;108975;1250;105232;-74
2023/03/03 10:03:26;;;;;;;;;;;;;;;6.64;57.96;97288.06;108873;1250;101138;-73
2023/03/03 10:06:03;;;;;;;;;;;;;;;6.78;58.41;97285.95;108949;1250;99424;-72
2023/03/03 10:08:49;;;;;;;;;;;;;;;6.99;57.72;97285.54;108912;1250;96897;-72
2023/03/03 10:11:23;;;;;;;;;;;;;;;7.18;57.31;97280.42;108989;1250;97172;-72
2023/03/03 10:13:57;;;;;;;;;;;;;;;7.34;56.70;97271.98;108947;1250;103577;-75
2023/03/03 10:16:35;;;;;;;;;;;;;;;7.40;56.47;97272.16;108987;1250;101102;-75
2023/03/03 10:19:08;;;;;;;;;;;;;;;7.37;55.82;97274.86;108936;1249;99831;-73
2023/03/03 10:21:40;;;;;;;;;;;;;;;7.37;55.96;97277.83;108972;1250;97201;-73
2023/03/03 10:24:25;;;;;;;;;;;;;;;7.31;55.59;97284.06;108994;1250;97823;-72
2023/03/03 10:26:56;;;;;;;;;;;;;;;7.30;56.12;97281.36;108974;1250;103868;-73
2023/03/03 10:29:42;;;;;;;;;;;;;;;7.50;55.98;97273.96;109011;1250;101170;-72
2023/03/03 10:32:19;;;;;;;;;;;;;;;7.72;55.85;97273.83;108970;1249;100112;-74
2023/03/03 10:34:55;;;;;;;;;;;;;;;7.81;55.09;97278.64;108945;1250;98406;-73
2023/03/03 10:37:29;;;;;;;;;;;;;;;7.50;54.55;97277.52;108986;1250;96963;-73
2023/03/03 10:40:00;;;;;;;;;;;;;;;7.34;54.71;97271.13;109010;1250;103953;-72
2023/03/03 10:42:31;;;;;;;;;;;;;;;7.54;55.20;97274.16;109046;1250;101288;-74
2023/03/03 10:45:11;;;;;;;;;;;;;;;7.68;54.54;97267.86;108946;1249;99879;-73
2023/03/03 10:47:50;;;;;;;;;;;;;;;7.91;54.85;97269.52;108883;1250;97037;-73
2023/03/03 10:50:27;;;;;;;;;;;;;;;8.30;54.61;97269.30;109036;1250;96994;-72
2023/03/03 10:53:08;;;;;;;;;;;;;;;8.75;54.10;97269.30;109002;1250;104868;-74
2023/03/03 10:55:38;;;;;;;;;;;;;;;9.25;53.64;97267.06;108647;1250;101289;-72
2023/03/03 10:58:25;;;;;;;;;;;;;;;9.73;52.92;97266.30;108996;1250;99614;-73
2023/03/03 11:00:55;;;;;;;;;;;;;;;9.87;51.96;97261.27;109026;1250;96950;-75
2023/03/03 11:03:41;;;;;;;;;;;;;;;10.08;51.47;97265.94;108883;1252;97104;-73
2023/03/03 11:06:19;;;;;;;;;;;;;;;10.03;51.10;97268.45;108930;1251;104889;-73
2023/03/03 11:08:46;;;;;;;;;;;;;;;10.21;51.23;97272.65;108864;1251;101551;-72
2023/03/03 11:11:33;;;;;;;;;;;;;;;10.50;50.46;97274.05;108856;1251;99945;-74
2023/03/03 11:14:20;;;;;;;;;;;;;;;10.57;49.86;97273.37;108930;1251;97580;-73
2023/03/03 11:16:48;;;;;;;;;;;;;;;10.28;49.35;97269.27;109017;1250;97076;-73
2023/03/03 11:19:29;;;;;;;;;;;;;;;10.28;50.25;97268.90;108997;1251;104839;-73
2023/03/03 11:22:15;;;;;;;;;;;;;;;10.55;49.59;97265.86;108970;1249;101486;-74
2023/03/03 11:24:43;;;;;;;;;;;;;;;10.48;49.14;97263.89;108984;1250;100116;-73
2023/03/03 11:27:29;;;;;;;;;;;;;;;10.34;49.33;97260.80;108937;1249;96987;-73
2023/03/03 11:30:16;;;;;;;;;;;;;;;10.51;49.26;97266.95;109053;1251;97739;-73
2023/03/03 11:33:06;;;;;;;;;;;;;;;10.28;48.86;97270.48;108963;1250;105130;-73
2023/03/03 11:35:43;;;;;;;;;;;;;;;10.01;48.96;97264.59;108941;1249;101571;-75
2023/03/03 11:38:22;;;;;;;;;;;;;;;10.13;49.01;97261.39;108936;1250;99712;-73
2023/03/03 11:40:50;;;;;;;;;;;;;;;10.19;48.15;97254.40;108665;1251;96930;-74
2023/03/03 11:43:31;;;;;;;;;;;;;;;10.20;48.72;97262.59;108895;1251;96917;-75
2023/03/03 11:46:03;;;;;;;;;;;;;;;10.37;48.62;97255.14;108962;1251;105807;-73
2023/03/03 11:48:37;;;;;;;;;;;;;;;10.50;48.25;97257.41;108977;1251;100423;-73
2023/03/03 11:51:07;;;;;;;;;;;;;;;10.38;47.66;97260.48;108899;1251;99823;-76
2023/03/03 11:53:41;;;;;;;;;;;;;;;10.26;47.89;97262.33;108916;1250;97263;-72
2023/03/03 11:56:18;;;;;;;;;;;;;;;10.24;47.48;97261.95;108900;1250;96910;-75
2023/03/03 11:59:09;;;;;;;;;;;;;;;10.26;47.33;97258.20;108930;1250;105985;-75
2023/03/03 12:02:00;;;;;;;;;;;;;;;10.35;47.45;97254.98;108373;1257;101355;-73
2023/03/03 12:04:31;;;;;;;;;;;;;;;10.43;47.39;97256.48;107917;1264;100017;-72
2023/03/03 12:07:05;;;;;;;;;;;;;;;10.64;46.99;97255.73;107931;1264;96998;-73
2023/03/03 12:09:51;;;;;;;;;;;;;;;10.87;47.04;97264.37;107959;1264;97144;-73
2023/03/03 12:12:22;;;;;;;;;;;;;;;11.13;47.19;97265.98;107940;1264;104044;-72
2023/03/03 12:14:53;;;;;;;;;;;;;;;11.12;46.31;97260.38;107942;1265;101402;-73
2023/03/03 12:17:21;;;;;;;;;;;;;;;11.07;46.53;97259.02;107914;1264;100101;-73
2023/03/03 12:20:01;;;;;;;;;;;;;;;10.97;46.20;97255.09;107911;1264;97337;-75
2023/03/03 12:22:47;;;;;;;;;;;;;;;10.62;45.65;97257.30;107904;1265;96961;-77
2023/03/03 12:25:22;;;;;;;;;;;;;;;10.14;46.56;97257.56;107898;1268;113518;-76
2023/03/03 12:27:53;;;;;;;;;;;;;;;10.31;46.38;97256.91;107941;1264;100512;-78
2023/03/03 12:30:26;;;;;;;;;;;;;;;10.19;46.59;97255.89;107924;1265;100084;-76
2023/03/03 12:33:13;;;;;;;;;;;;;;;10.22;46.77;97256.44;107876;1264;97028;-76
2023/03/03 12:36:01;;;;;;;;;;;;;;;10.49;46.92;97253.05;107940;1265;97068;-76
2023/03/03 12:38:35;;;;;;;;;;;;;;;10.74;46.57;97249.06;107710;1264;103547;-76
2023/03/03 12:41:03;;;;;;;;;;;;;;;10.89;46.65;97246.41;108059;1257;99538;-76
2023/03/03 12:43:40;;;;;;;;;;;;;;;11.13;46.37;97249.65;108341;1256;99707;-73
2023/03/03 12:46:14;;;;;;;;;;;;;;;11.29;46.14;97243.73;108346;1256;96918;-73
2023/03/03 12:48:43;;;;;;;;;;;;;;;11.38;45.70;97240.33;108398;1260;97063;-74
2023/03/03 12:51:31;;;;;;;;;;;;;;;11.55;45.36;97244.25;108352;1257;104926;-75
2023/03/03 12:54:08;;;;;;;;;;;;;;;11.85;45.24;97239.74;108360;1256;101471;-74
2023/03/03 12:56:53;;;;;;;;;;;;;;;12.12;44.79;97241.34;108320;1256;99556;-74